Time;durP1;ratioP1;P1;durP2;ratioP2;P2;SDS_P1;SDS_P2;PMS_P1;PMS_P2;Temp;Humidity;BMP_temperature;BMP_pressure;BME280_temperature;BME280_humidity;BME280_pressure;Samples;Min_cycle;Max_cycle;Signal;HPM_P1;HPM_P2
2022/11/01 00:02:43;;;;;;;3.47;1.90;;;;;;;3.27;80.68;101123.91;10605386;28;20497;-75
2022/11/01 00:07:46;;;;;;;5.50;2.10;;;;;;;3.25;80.89;101123.31;10603061;28;20066;-75
2022/11/01 00:12:48;;;;;;;2.83;1.65;;;;;;;3.28;81.88;101114.72;10626562;27;20036;-75
2022/11/01 00:17:50;;;;;;;3.95;1.63;;;;;;;3.25;82.05;101112.44;10597645;28;20035;-75
2022/11/01 00:22:52;;;;;;;4.13;1.40;;;;;;;3.24;82.49;101112.69;10585274;28;20050;-75
2022/11/01 00:27:55;;;;;;;2.72;1.70;;;;;;;3.36;82.24;101105.50;10611203;28;20047;-75
2022/11/01 00:32:57;;;;;;;2.15;1.45;;;;;;;3.39;82.52;101107.75;10609445;28;20501;-75
2022/11/01 00:37:59;;;;;;;2.35;1.50;;;;;;;3.45;82.67;101097.88;10597306;28;20058;-74
2022/11/01 00:43:02;;;;;;;3.33;1.75;;;;;;;3.45;82.63;101095.16;10614535;28;20048;-75
2022/11/01 00:48:04;;;;;;;4.32;1.65;;;;;;;3.47;83.70;101095.78;10617404;28;20047;-75
2022/11/01 00:53:08;;;;;;;3.35;1.70;;;;;;;3.53;83.23;101087.59;10617756;28;20042;-75
2022/11/01 00:58:10;;;;;;;3.88;1.63;;;;;;;3.49;83.45;101074.69;10617832;28;20044;-75
2022/11/01 01:03:12;;;;;;;3.60;2.10;;;;;;;3.51;83.96;101081.56;10612172;27;20043;-75
2022/11/01 01:08:14;;;;;;;2.63;1.55;;;;;;;3.53;84.10;101071.31;10618408;28;20044;-75
2022/11/01 01:13:17;;;;;;;4.75;1.58;;;;;;;3.52;85.04;101052.53;10615569;28;20051;-75
2022/11/01 01:18:19;;;;;;;2.35;1.70;;;;;;;3.48;84.92;101056.75;10614852;28;20038;-75
2022/11/01 01:23:22;;;;;;;2.80;1.77;;;;;;;3.49;85.69;101045.69;10604961;28;20048;-75
2022/11/01 01:28:24;;;;;;;3.63;1.50;;;;;;;3.52;86.07;101042.53;10605547;28;20047;-75
2022/11/01 01:33:27;;;;;;;6.00;1.90;;;;;;;3.58;86.16;101035.34;10602737;27;20068;-75
2022/11/01 01:38:30;;;;;;;2.95;1.80;;;;;;;3.72;86.60;101030.63;10617514;28;20417;-75
2022/11/01 01:43:40;;;;;;;5.68;1.90;;;;;;;3.76;86.39;101015.53;10614182;28;20047;-76
2022/11/01 01:48:45;;;;;;;3.38;1.58;;;;;;;3.83;86.14;101010.88;10612265;28;20048;-74
2022/11/01 01:53:51;;;;;;;2.35;1.77;;;;;;;3.84;86.26;101010.63;10604238;28;20047;-74
2022/11/01 01:59:06;;;;;;;5.15;1.98;;;;;;;3.67;86.68;101009.59;10609405;28;20080;-74
2022/11/01 02:04:36;;;;;;;5.35;1.92;;;;;;;3.74;86.70;101002.19;10612688;27;20036;-74
2022/11/01 02:09:38;;;;;;;4.38;2.13;;;;;;;3.79;86.63;101005.03;10577847;28;20411;-76
2022/11/01 02:14:42;;;;;;;3.95;2.50;;;;;;;3.88;87.25;100997.44;10609273;28;20062;-76
2022/11/01 02:20:00;;;;;;;4.75;2.72;;;;;;;3.91;87.24;100992.38;10574887;28;20043;-76
2022/11/01 02:25:21;;;;;;;9.40;3.30;;;;;;;3.88;87.27;100981.97;10606028;28;20043;-76
2022/11/01 02:30:23;;;;;;;7.10;3.15;;;;;;;3.85;87.48;100985.16;10593104;28;20040;-76
2022/11/01 02:35:28;;;;;;;7.05;3.15;;;;;;;3.75;87.59;100982.13;10602508;28;20054;-74
2022/11/01 02:40:53;;;;;;;5.97;3.30;;;;;;;3.62;88.64;100968.72;10576872;28;20635;-76
2022/11/01 02:45:56;;;;;;;8.38;3.15;;;;;;;3.58;88.77;100964.81;10578736;28;20433;-76
2022/11/01 02:50:59;;;;;;;7.45;3.60;;;;;;;3.54;89.49;100966.31;10613765;28;20055;-75
2022/11/01 02:56:01;;;;;;;6.65;3.33;;;;;;;3.47;90.25;100962.84;10610264;28;20043;-74
2022/11/01 03:01:13;;;;;;;8.70;3.65;;;;;;;3.49;90.54;100952.63;10585146;28;20043;-74
2022/11/01 03:06:25;;;;;;;8.45;3.08;;;;;;;3.54;90.51;100950.88;10555967;28;20044;-74
2022/11/01 03:11:35;;;;;;;4.78;3.10;;;;;;;3.62;90.89;100955.97;10571878;28;20051;-74
2022/11/01 03:17:01;;;;;;;5.03;2.42;;;;;;;3.59;91.35;100939.31;10593197;28;20489;-74
2022/11/01 03:22:11;;;;;;;8.48;3.08;;;;;;;3.64;90.92;100944.88;10598930;28;20190;-74
2022/11/01 03:27:35;;;;;;;4.82;2.35;;;;;;;3.72;91.22;100950.03;10611525;28;20070;-74
2022/11/01 03:32:42;;;;;;;6.10;2.70;;;;;;;3.71;91.27;100940.22;10592895;28;20031;-75
2022/11/01 03:37:45;;;;;;;4.30;2.63;;;;;;;3.77;91.06;100936.59;10611094;28;20062;-75
2022/11/01 03:42:49;;;;;;;6.10;2.42;;;;;;;3.81;91.60;100940.50;10598087;28;20047;-75
2022/11/01 03:47:52;;;;;;;3.63;2.33;;;;;;;3.78;91.65;100943.66;10591770;28;20509;-75
2022/11/01 03:52:54;;;;;;;5.38;2.33;;;;;;;3.86;91.67;100937.09;10594644;27;20048;-75
2022/11/01 03:57:58;;;;;;;7.13;2.75;;;;;;;3.89;92.70;100942.91;10584584;28;20052;-75
2022/11/01 04:03:00;;;;;;;4.80;2.38;;;;;;;3.94;92.41;100936.78;10570202;28;20359;-75
2022/11/01 04:08:03;;;;;;;5.93;3.15;;;;;;;3.91;93.10;100931.81;10570494;28;20052;-75
2022/11/01 04:13:06;;;;;;;8.88;2.55;;;;;;;3.89;93.26;100932.03;10570942;28;20052;-75
2022/11/01 04:23:45;;;;;;;5.25;2.92;;;;;;;3.92;93.94;100911.75;10562158;28;20047;-75
2022/11/01 04:28:55;;;;;;;7.35;2.78;;;;;;;3.98;94.19;100916.25;10610231;28;20043;-75
2022/11/01 04:33:58;;;;;;;5.78;2.78;;;;;;;3.96;94.45;100915.66;10610658;28;20035;-75
2022/11/01 04:39:00;;;;;;;5.35;2.80;;;;;;;3.82;94.61;100906.06;10609226;28;20048;-75
2022/11/01 04:44:03;;;;;;;8.20;3.33;;;;;;;4.00;94.74;100897.03;10572988;28;20043;-75
2022/11/01 04:49:05;;;;;;;4.80;2.85;;;;;;;3.97;95.56;100889.31;10568783;28;20044;-75
2022/11/01 04:54:08;;;;;;;4.38;2.70;;;;;;;3.99;95.43;100893.47;10568533;28;20036;-76
2022/11/01 04:59:10;;;;;;;3.63;2.50;;;;;;;4.28;95.66;100883.63;10603427;28;20050;-76
2022/11/01 05:04:12;;;;;;;6.50;3.20;;;;;;;4.44;95.61;100887.53;10610201;28;20044;-76
2022/11/01 05:09:15;;;;;;;4.50;3.00;;;;;;;4.54;94.75;100879.66;10608245;28;20039;-75
2022/11/01 05:14:17;;;;;;;6.25;2.97;;;;;;;4.75;94.24;100883.66;10588045;28;20055;-76
2022/11/01 05:19:19;;;;;;;4.70;2.85;;;;;;;4.58;94.05;100885.44;10597624;28;20035;-75
2022/11/01 05:24:21;;;;;;;4.25;3.28;;;;;;;4.47;93.50;100882.47;10568606;28;20047;-75
2022/11/01 05:29:23;;;;;;;5.97;2.83;;;;;;;4.40;93.75;100881.75;10575977;28;20047;-75
2022/11/01 05:34:26;;;;;;;7.70;3.47;;;;;;;4.43;93.69;100877.75;10576646;28;20047;-76
2022/11/01 05:39:28;;;;;;;6.00;3.20;;;;;;;4.37;93.63;100876.81;10593604;28;20524;-74
2022/11/01 05:44:30;;;;;;;6.07;3.53;;;;;;;4.20;94.25;100875.81;10616389;28;20052;-74
2022/11/01 05:49:32;;;;;;;6.20;3.33;;;;;;;4.19;94.32;100863.31;10616524;28;20036;-76
2022/11/01 05:54:34;;;;;;;7.10;3.50;;;;;;;4.21;94.87;100874.75;10613300;28;20050;-76
2022/11/01 05:59:37;;;;;;;6.10;3.70;;;;;;;4.19;95.99;100875.00;10617194;28;20040;-76
2022/11/01 06:04:39;;;;;;;7.90;3.35;;;;;;;4.21;96.13;100872.06;10617310;28;20070;-76
2022/11/01 06:09:41;;;;;;;8.30;4.25;;;;;;;4.23;96.34;100875.34;10616791;28;20467;-76
2022/11/01 06:14:43;;;;;;;7.45;3.50;;;;;;;4.33;96.34;100870.16;10616527;28;20043;-76
2022/11/01 06:19:45;;;;;;;8.18;4.10;;;;;;;4.38;96.79;100862.16;10614154;28;20032;-76
2022/11/01 06:24:48;;;;;;;7.32;4.03;;;;;;;4.35;97.25;100868.06;10572386;28;20044;-75
2022/11/01 06:29:50;;;;;;;7.53;4.47;;;;;;;4.44;97.04;100866.63;10574289;28;20044;-76
2022/11/01 06:34:52;;;;;;;9.82;4.40;;;;;;;4.50;97.49;100864.84;10573651;28;20052;-75
2022/11/01 06:39:54;;;;;;;13.40;5.50;;;;;;;4.54;97.68;100856.03;10572931;28;20047;-76
2022/11/01 06:44:56;;;;;;;10.48;5.00;;;;;;;4.52;97.55;100860.88;10573145;28;20047;-76
2022/11/01 06:49:58;;;;;;;11.38;4.68;;;;;;;4.49;98.29;100846.91;10598792;27;20447;-74
2022/11/01 06:55:01;;;;;;;10.82;4.65;;;;;;;4.57;97.71;100853.88;10614754;28;20039;-75
2022/11/01 07:00:04;;;;;;;9.05;4.80;;;;;;;4.56;98.16;100857.66;10593589;28;20098;-75
2022/11/01 07:05:06;;;;;;;11.82;4.32;;;;;;;4.59;98.53;100857.19;10609447;27;20039;-75
2022/11/01 07:10:08;;;;;;;9.18;4.97;;;;;;;4.75;98.56;100857.31;10608626;28;20055;-81
2022/11/01 07:15:11;;;;;;;8.85;5.00;;;;;;;4.80;98.78;100862.03;10590071;28;20039;-76
2022/11/01 07:20:14;;;;;;;13.68;5.25;;;;;;;4.90;98.99;100866.88;10592525;28;20514;-76
2022/11/01 07:25:16;;;;;;;11.65;5.00;;;;;;;4.94;99.04;100874.31;10608565;28;20054;-75
2022/11/01 07:30:19;;;;;;;13.43;6.00;;;;;;;5.01;98.84;100872.28;10595134;28;20102;-74
2022/11/01 07:35:22;;;;;;;10.13;5.18;;;;;;;5.11;98.71;100879.84;10585558;27;20043;-75
2022/11/01 07:40:26;;;;;;;10.65;5.10;;;;;;;5.14;99.12;100872.03;10608302;27;20413;-75
2022/11/01 07:45:30;;;;;;;8.70;4.57;;;;;;;5.25;98.97;100864.09;10610284;28;20643;-75
2022/11/01 07:50:33;;;;;;;7.93;4.78;;;;;;;5.28;98.35;100860.88;10600581;28;20048;-75
2022/11/01 07:55:35;;;;;;;9.48;5.15;;;;;;;5.38;98.35;100855.63;10587252;28;20063;-75
2022/11/01 08:00:38;;;;;;;6.95;4.25;;;;;;;5.47;98.56;100854.19;10556172;28;20043;-75
2022/11/01 08:05:41;;;;;;;8.88;5.03;;;;;;;5.53;98.79;100853.22;10613321;28;20409;-75
2022/11/01 08:10:44;;;;;;;11.05;5.30;;;;;;;5.57;99.17;100851.69;10613397;28;20051;-74
2022/11/01 08:15:48;;;;;;;13.30;4.60;;;;;;;5.55;98.63;100852.97;10613338;28;20520;-74
2022/11/01 08:20:50;;;;;;;9.07;4.72;;;;;;;5.63;98.71;100850.72;10585806;28;20075;-74
2022/11/01 08:25:53;;;;;;;9.52;4.97;;;;;;;5.78;99.13;100858.34;10569881;28;20035;-74
2022/11/01 08:30:55;;;;;;;11.80;6.18;;;;;;;5.77;99.01;100855.88;10606303;28;20537;-75
2022/11/01 08:35:57;;;;;;;8.07;5.03;;;;;;;5.78;99.31;100860.25;10611061;28;20035;-75
2022/11/01 08:40:59;;;;;;;9.85;4.75;;;;;;;5.78;98.48;100852.06;10574837;28;20070;-75
2022/11/01 08:46:01;;;;;;;8.93;4.82;;;;;;;5.77;99.29;100853.13;10569000;28;20040;-75
2022/11/01 08:51:04;;;;;;;8.77;5.30;;;;;;;5.77;99.30;100851.25;10605339;28;20531;-74
2022/11/01 08:56:06;;;;;;;10.95;5.40;;;;;;;5.82;99.41;100840.44;10611568;28;20140;-75
2022/11/01 09:01:11;;;;;;;15.32;7.63;;;;;;;5.79;99.08;100848.28;10608677;28;20048;-76
2022/11/01 09:06:13;;;;;;;15.05;6.70;;;;;;;5.87;99.49;100842.41;10583915;28;20482;-76
2022/11/01 09:11:15;;;;;;;24.60;8.80;;;;;;;5.88;100.00;100838.63;10602817;28;20054;-76
2022/11/01 09:16:18;;;;;;;19.35;8.77;;;;;;;5.91;99.92;100827.28;10599000;28;20040;-76
2022/11/01 09:21:20;;;;;;;20.77;8.57;;;;;;;5.91;100.00;100825.41;10578360;28;20047;-76
2022/11/01 09:26:22;;;;;;;20.67;8.77;;;;;;;5.97;100.00;100829.03;10600948;28;20048;-74
2022/11/01 09:31:24;;;;;;;17.73;8.20;;;;;;;5.97;100.00;100827.13;10604342;27;20050;-76
2022/11/01 09:36:28;;;;;;;19.35;9.02;;;;;;;6.00;100.00;100821.19;10584649;28;20044;-77
2022/11/01 09:41:46;;;;;;;22.30;9.32;;;;;;;6.02;100.00;100829.09;10597810;27;20043;-77
2022/11/01 09:46:52;;;;;;;;;;;;;;;6.01;100.00;100816.56;10626906;27;20039;-76
2022/11/01 09:51:55;;;;;;;16.50;8.30;;;;;;;6.03;100.00;100819.84;10587331;27;20378;-78
2022/11/01 09:57:21;;;;;;;21.65;9.98;;;;;;;6.02;100.00;100821.75;10575431;28;20541;-77
2022/11/01 10:02:57;;;;;;;25.20;9.77;;;;;;;6.03;100.00;100814.41;10580776;28;20044;-77
2022/11/01 10:08:07;;;;;;;22.30;8.95;;;;;;;6.04;100.00;100816.06;10607865;28;20529;-75
2022/11/01 10:13:22;;;;;;;28.05;9.82;;;;;;;6.12;100.00;100812.13;10605327;28;20048;-75
2022/11/01 10:18:30;;;;;;;20.48;10.18;;;;;;;6.18;100.00;100806.50;10572693;28;20047;-73
2022/11/01 10:23:48;;;;;;;21.80;10.38;;;;;;;6.21;100.00;100805.97;10593783;28;20477;-75
2022/11/01 10:29:14;;;;;;;23.88;10.10;;;;;;;6.25;100.00;100795.44;10586770;27;20064;-74
2022/11/01 10:34:25;;;;;;;22.15;8.85;;;;;;;6.28;100.00;100803.94;10609172;28;20051;-74
2022/11/01 10:39:35;;;;;;;18.42;8.18;;;;;;;6.33;100.00;100804.00;10575838;28;20051;-75
2022/11/01 10:44:56;;;;;;;18.48;8.77;;;;;;;6.40;100.00;100795.66;10614402;28;20050;-75
2022/11/01 10:50:02;;;;;;;18.50;8.73;;;;;;;6.46;100.00;100802.84;10588284;28;20054;-74
2022/11/01 10:55:05;;;;;;;17.00;8.15;;;;;;;6.51;100.00;100802.09;10592033;28;20035;-75
2022/11/01 11:00:18;;;;;;;15.35;7.43;;;;;;;6.57;100.00;100803.81;10614004;28;20054;-75
2022/11/01 11:05:21;;;;;;;13.82;7.43;;;;;;;6.61;100.00;100802.25;10611069;28;20040;-75
2022/11/01 11:10:25;;;;;;;18.42;7.78;;;;;;;6.67;100.00;100809.41;10578805;28;20429;-75
2022/11/01 11:15:42;;;;;;;19.50;8.25;;;;;;;6.74;100.00;100801.88;10572168;28;20047;-75
2022/11/01 11:20:49;;;;;;;19.33;7.95;;;;;;;6.82;100.00;100801.44;10573458;28;20377;-73
2022/11/01 11:25:51;;;;;;;17.40;7.47;;;;;;;6.86;100.00;100809.94;10607906;28;20036;-76
2022/11/01 11:30:54;;;;;;;13.95;7.22;;;;;;;6.88;100.00;100805.06;10595595;28;20051;-75
2022/11/01 11:35:57;;;;;;;20.20;7.97;;;;;;;7.00;100.00;100792.13;10589344;28;20040;-76
2022/11/01 11:40:59;;;;;;;19.08;7.85;;;;;;;7.06;100.00;100795.75;10583645;27;20047;-76
2022/11/01 11:46:14;;;;;;;23.85;8.60;;;;;;;7.12;100.00;100794.75;10610992;28;20050;-76
2022/11/01 11:51:19;;;;;;;21.73;8.00;;;;;;;7.18;100.00;100805.44;10611128;27;20063;-74
2022/11/01 11:56:21;;;;;;;22.92;7.78;;;;;;;7.19;100.00;100803.53;10614405;27;20043;-74
2022/11/01 12:01:27;;;;;;;17.27;7.53;;;;;;;7.20;100.00;100794.28;10588108;28;20051;-75
2022/11/01 12:06:31;;;;;;;11.45;6.03;;;;;;;7.26;100.00;100788.59;10582259;28;20502;-75
2022/11/01 12:11:45;;;;;;;13.02;5.50;;;;;;;7.30;100.00;100788.94;10582935;27;20043;-74
2022/11/01 12:16:47;;;;;;;9.93;4.97;;;;;;;7.31;100.00;100796.06;10590090;28;20056;-75
2022/11/01 12:21:50;;;;;;;9.23;4.68;;;;;;;7.35;100.00;100797.19;10593137;28;20043;-74
2022/11/01 12:26:56;;;;;;;10.68;4.55;;;;;;;7.34;100.00;100795.53;10599599;28;20039;-74
2022/11/01 12:32:47;;;;;;;7.80;4.07;;;;;;;7.35;100.00;100797.19;10590310;28;20044;-78
2022/11/01 12:38:27;;;;;;;9.73;4.00;;;;;;;7.34;100.00;100794.72;10588213;28;20376;-76
2022/11/01 12:43:47;;;;;;;6.57;3.92;;;;;;;7.32;100.00;100797.69;10558341;28;20067;-77
2022/11/01 12:48:54;;;;;;;8.05;4.60;;;;;;;7.34;100.00;100797.44;10578397;28;20040;-74
2022/11/01 12:54:11;;;;;;;12.02;6.78;;;;;;;7.32;100.00;100792.25;10577465;28;20048;-73
2022/11/01 12:59:22;;;;;;;13.23;6.90;;;;;;;7.33;100.00;100795.78;10584298;28;20059;-75
2022/11/01 13:04:29;;;;;;;10.20;6.15;;;;;;;7.30;100.00;100785.41;10601070;28;20062;-76
2022/11/01 13:10:13;;;;;;;9.35;5.25;;;;;;;7.26;100.00;100787.78;10625136;28;20044;-75
2022/11/01 13:15:34;;;;;;;5.65;4.13;;;;;;;7.20;100.00;100786.09;10595160;28;20493;-75
2022/11/01 13:20:38;;;;;;;6.28;4.28;;;;;;;7.20;100.00;100780.63;10593851;28;20035;-75
2022/11/01 13:25:46;;;;;;;8.50;4.70;;;;;;;7.23;100.00;100775.47;10600441;28;20036;-77
2022/11/01 13:31:06;;;;;;;8.80;4.47;;;;;;;7.28;100.00;100776.59;10602859;28;20032;-77
2022/11/01 13:36:17;;;;;;;8.27;4.43;;;;;;;7.29;100.00;100776.38;10591800;28;20662;-79
2022/11/01 13:41:30;;;;;;;6.22;3.60;;;;;;;7.26;100.00;100779.59;10590544;28;20055;-78
2022/11/01 13:47:06;;;;;;;7.43;4.82;;;;;;;7.23;100.00;100780.94;10594518;28;20043;-78
2022/11/01 13:52:18;;;;;;;7.30;4.07;;;;;;;7.20;100.00;100786.91;10606174;27;20051;-76
2022/11/01 13:57:23;;;;;;;5.38;3.67;;;;;;;7.16;100.00;100774.03;10609279;27;20409;-76
2022/11/01 14:02:25;;;;;;;6.45;3.22;;;;;;;7.11;100.00;100772.06;10605324;27;20032;-78
2022/11/01 14:07:35;;;;;;;5.78;4.00;;;;;;;7.10;100.00;100780.50;10619943;27;20051;-77
2022/11/01 14:12:40;;;;;;;8.63;4.57;;;;;;;7.08;100.00;100777.19;10611931;27;20048;-77
2022/11/01 14:17:51;;;;;;;7.20;5.22;;;;;;;7.05;100.00;100783.19;10620581;27;20043;-78
2022/11/01 14:22:55;;;;;;;6.43;5.13;;;;;;;7.03;100.00;100783.44;10611148;27;20040;-78
2022/11/01 14:28:15;;;;;;;10.00;5.45;;;;;;;7.01;100.00;100776.59;10618074;28;20043;-77
2022/11/01 14:33:19;;;;;;;8.98;5.53;;;;;;;7.00;100.00;100777.66;10607348;28;20039;-76
2022/11/01 14:38:31;;;;;;;8.30;4.50;;;;;;;6.98;100.00;100777.09;10603953;28;20044;-77
2022/11/01 14:43:46;;;;;;;5.90;3.67;;;;;;;6.99;100.00;100779.56;10589953;28;20048;-76
2022/11/01 14:48:59;;;;;;;3.30;2.75;;;;;;;6.93;100.00;100778.66;10600674;28;20048;-76
2022/11/01 14:54:10;;;;;;;5.22;3.45;;;;;;;6.90;100.00;100778.34;10599538;28;20042;-76
2022/11/01 14:59:18;;;;;;;3.45;2.58;;;;;;;6.91;100.00;100788.19;10608832;28;20051;-75
2022/11/01 15:04:22;;;;;;;3.83;2.75;;;;;;;6.92;100.00;100792.56;10601950;27;20034;-75
2022/11/01 15:09:27;;;;;;;3.20;2.10;;;;;;;6.89;100.00;100782.16;10595792;27;20490;-75
2022/11/01 15:14:44;;;;;;;4.72;2.83;;;;;;;6.87;100.00;100789.78;10611119;27;20046;-76
2022/11/01 15:19:47;;;;;;;4.55;2.75;;;;;;;6.86;100.00;100790.84;10615641;27;20043;-75
2022/11/01 15:24:58;;;;;;;5.55;3.17;;;;;;;6.83;100.00;100786.72;10606665;27;20047;-79
2022/11/01 15:30:01;;;;;;;5.03;3.20;;;;;;;6.86;100.00;100791.66;10598106;27;20052;-79
2022/11/01 15:35:19;;;;;;;4.63;2.67;;;;;;;6.84;100.00;100795.75;10605157;27;20051;-78
2022/11/01 15:40:31;;;;;;;5.00;2.90;;;;;;;6.85;100.00;100797.38;10615472;27;20036;-79
2022/11/01 15:45:35;;;;;;;2.95;2.50;;;;;;;6.82;100.00;100789.72;10605673;27;20039;-77
2022/11/01 15:50:40;;;;;;;4.03;2.33;;;;;;;6.81;100.00;100794.34;10602118;27;20050;-81
2022/11/01 15:56:17;;;;;;;2.92;2.22;;;;;;;6.79;100.00;100785.59;10588178;28;20036;-79
2022/11/01 16:01:23;;;;;;;2.90;2.05;;;;;;;6.78;100.00;100797.56;10627371;27;20043;-78
2022/11/01 16:06:33;;;;;;;4.72;2.00;;;;;;;6.79;100.00;100799.22;10590412;28;20036;-78
2022/11/01 16:11:35;;;;;;;4.93;2.60;;;;;;;6.82;100.00;100795.16;10605754;27;20047;-78
2022/11/01 16:16:57;;;;;;;4.25;2.50;;;;;;;6.86;100.00;100793.56;10614248;27;20051;-81
2022/11/01 16:21:59;;;;;;;4.47;2.50;;;;;;;6.84;100.00;100796.56;10603107;28;20516;-79
2022/11/01 16:27:06;;;;;;;3.78;2.35;;;;;;;6.86;100.00;100804.50;10589211;27;20028;-79
2022/11/01 16:32:19;;;;;;;4.28;2.85;;;;;;;6.85;100.00;100814.56;10577375;28;20048;-79
2022/11/01 16:37:24;;;;;;;3.75;2.50;;;;;;;6.79;100.00;100820.22;10613255;28;20047;-79
2022/11/01 16:42:26;;;;;;;6.45;3.70;;;;;;;6.74;100.00;100810.03;10592317;28;20043;-80
2022/11/01 16:47:30;;;;;;;3.22;2.22;;;;;;;6.72;100.00;100806.75;10595791;28;20485;-79
2022/11/01 16:52:34;;;;;;;6.05;2.40;;;;;;;6.80;100.00;100813.69;10599139;28;20442;-80
2022/11/01 16:57:37;;;;;;;6.97;2.35;;;;;;;6.81;100.00;100818.06;10600601;28;20398;-79
2022/11/01 17:02:40;;;;;;;4.05;2.65;;;;;;;6.78;100.00;100816.66;10582360;28;20048;-79
2022/11/01 17:07:42;;;;;;;4.90;2.78;;;;;;;6.76;100.00;100810.63;10608866;28;20501;-79
2022/11/01 17:12:44;;;;;;;4.10;2.38;;;;;;;6.72;100.00;100812.19;10571379;28;20070;-79
2022/11/01 17:17:47;;;;;;;4.28;3.00;;;;;;;6.79;100.00;100817.50;10600332;28;20486;-79
2022/11/01 17:22:50;;;;;;;2.60;2.20;;;;;;;7.04;100.00;100822.44;10590119;28;20039;-79
2022/11/01 17:27:55;;;;;;;4.38;2.25;;;;;;;7.13;100.00;100818.22;10609819;28;20510;-79
2022/11/01 17:32:57;;;;;;;3.92;3.20;;;;;;;7.03;100.00;100812.63;10604584;28;20532;-79
2022/11/01 17:37:59;;;;;;;3.92;2.38;;;;;;;6.86;100.00;100829.84;10609442;27;20047;-79
2022/11/01 17:43:02;;;;;;;5.15;2.90;;;;;;;6.74;100.00;100823.69;10588898;28;20036;-81
2022/11/01 17:48:05;;;;;;;5.10;3.05;;;;;;;6.71;100.00;100824.19;10582943;28;20062;-82
2022/11/01 17:53:10;;;;;;;3.42;2.42;;;;;;;6.66;100.00;100826.84;10585385;28;20054;-81
2022/11/01 17:58:12;;;;;;;2.60;2.40;;;;;;;6.61;100.00;100833.06;10614541;28;20044;-81
2022/11/01 18:03:14;;;;;;;3.05;2.58;;;;;;;6.58;100.00;100830.00;10609738;28;20027;-82
2022/11/01 18:08:19;;;;;;;4.00;2.22;;;;;;;6.52;100.00;100822.81;10602003;28;20449;-80
2022/11/01 18:13:31;;;;;;;3.08;2.17;;;;;;;6.53;99.85;100824.47;10599462;28;20047;-81
2022/11/01 18:19:27;;;;;;;2.83;2.08;;;;;;;6.46;99.52;100816.47;10613949;28;20067;-81
2022/11/01 18:24:52;;;;;;;2.70;2.08;;;;;;;6.43;100.00;100821.59;10578719;28;20064;-80
2022/11/01 18:29:54;;;;;;;4.47;2.75;;;;;;;6.45;99.21;100830.34;10578761;28;20513;-78
2022/11/01 18:35:10;;;;;;;2.25;2.00;;;;;;;6.41;99.13;100829.19;10600476;28;20040;-78
2022/11/01 18:40:23;;;;;;;2.63;2.20;;;;;;;6.40;99.37;100822.91;10584943;28;20035;-79
2022/11/01 18:45:26;;;;;;;2.30;2.10;;;;;;;6.38;99.31;100829.69;10592017;28;20052;-80
2022/11/01 18:50:30;;;;;;;4.03;1.92;;;;;;;6.45;99.55;100838.53;10604138;28;20093;-79
2022/11/01 18:55:32;;;;;;;3.20;2.22;;;;;;;6.42;99.43;100839.00;10604057;28;20052;-79
2022/11/01 19:00:35;;;;;;;3.75;2.40;;;;;;;6.35;99.73;100833.72;10598896;28;20044;-79
2022/11/01 19:05:37;;;;;;;3.53;2.55;;;;;;;6.37;99.40;100833.47;10610757;28;20058;-79
2022/11/01 19:10:41;;;;;;;3.45;2.60;;;;;;;6.36;100.00;100840.84;10613829;28;20073;-78
2022/11/01 19:15:43;;;;;;;4.57;3.00;;;;;;;6.33;100.00;100844.88;10610827;28;20048;-78
2022/11/01 19:20:51;;;;;;;5.03;2.92;;;;;;;6.28;100.00;100842.09;10614009;28;20040;-78
2022/11/01 19:25:54;;;;;;;;;;;;;;;6.27;100.00;100845.88;10619903;27;20058;-85
2022/11/01 19:31:06;;;;;;;4.70;3.03;;;;;;;6.27;100.00;100848.63;10609419;28;19920;-81
2022/11/01 19:36:18;;;;;;;5.47;3.30;;;;;;;6.25;100.00;100850.75;10585725;28;20047;-80
2022/11/01 19:41:25;;;;;;;4.43;3.08;;;;;;;6.26;100.00;100846.97;10619168;27;20043;-80
2022/11/01 19:46:28;;;;;;;4.97;3.25;;;;;;;6.35;100.00;100850.09;10596920;28;20043;-80
2022/11/01 19:51:31;;;;;;;4.13;2.78;;;;;;;6.32;100.00;100856.88;10591910;28;20221;-80
2022/11/01 19:56:33;;;;;;;4.90;3.10;;;;;;;6.33;100.00;100857.69;10601893;28;20063;-81
2022/11/01 20:01:40;;;;;;;4.03;3.13;;;;;;;6.30;100.00;100859.00;10590498;28;20047;-80
2022/11/01 20:06:51;;;;;;;3.35;2.55;;;;;;;6.23;100.00;100850.16;10585734;28;20028;-80
2022/11/01 20:11:58;;;;;;;2.88;2.40;;;;;;;6.25;100.00;100855.38;10582692;28;20058;-81
2022/11/01 20:17:01;;;;;;;4.10;2.50;;;;;;;6.23;100.00;100852.88;10607471;28;20402;-82
2022/11/01 20:22:03;;;;;;;5.10;3.58;;;;;;;6.14;100.00;100859.84;10586702;28;20044;-82
2022/11/01 20:27:06;;;;;;;5.07;3.80;;;;;;;6.12;100.00;100861.97;10614821;27;20052;-82
2022/11/01 20:32:12;;;;;;;4.55;3.42;;;;;;;6.08;100.00;100866.28;10618894;27;20043;-81
2022/11/01 20:37:14;;;;;;;4.53;3.22;;;;;;;6.11;100.00;100859.50;10598591;28;20126;-80
2022/11/01 20:42:20;;;;;;;3.50;2.70;;;;;;;6.08;100.00;100869.00;10606980;28;20529;-83
2022/11/01 20:47:23;;;;;;;3.33;2.58;;;;;;;5.97;100.00;100867.16;10610698;28;20058;-80
2022/11/01 20:52:29;;;;;;;3.25;2.35;;;;;;;5.92;100.00;100870.63;10603836;28;20606;-78
2022/11/01 20:57:31;;;;;;;2.20;2.00;;;;;;;5.93;100.00;100863.28;10607006;28;20055;-78
2022/11/01 21:02:33;;;;;;;6.22;2.53;;;;;;;5.90;100.00;100866.47;10602910;28;20043;-78
2022/11/01 21:07:36;;;;;;;2.65;2.10;;;;;;;5.83;100.00;100865.78;10612495;28;20040;-82
2022/11/01 21:12:44;;;;;;;2.10;1.77;;;;;;;5.81;100.00;100862.47;10572114;28;20044;-79
2022/11/01 21:17:46;;;;;;;2.92;2.17;;;;;;;5.84;100.00;100861.97;10592318;27;20494;-78
2022/11/01 21:22:52;;;;;;;3.65;2.05;;;;;;;5.82;100.00;100856.78;10580529;27;20044;-77
2022/11/01 21:27:54;;;;;;;2.35;1.80;;;;;;;5.84;100.00;100856.53;10578089;28;20042;-77
2022/11/01 21:32:56;;;;;;;2.50;2.05;;;;;;;5.91;100.00;100859.97;10587018;27;20054;-78
2022/11/01 21:37:58;;;;;;;2.22;1.70;;;;;;;5.92;100.00;100857.00;10580310;28;20482;-80
2022/11/01 21:43:02;;;;;;;3.08;2.05;;;;;;;5.90;100.00;100855.56;10580675;28;20036;-79
2022/11/01 21:48:25;;;;;;;4.55;2.28;;;;;;;5.85;100.00;100869.06;10561457;28;20042;-79
2022/11/01 21:53:27;;;;;;;3.35;2.50;;;;;;;5.83;100.00;100863.03;10573925;28;20048;-78
2022/11/01 21:58:29;;;;;;;5.28;1.80;;;;;;;5.85;100.00;100863.63;10578897;28;20072;-76
2022/11/01 22:03:31;;;;;;;3.33;2.20;;;;;;;5.75;100.00;100869.72;10599309;27;20058;-75
2022/11/01 22:08:34;;;;;;;4.50;2.03;;;;;;;5.82;100.00;100861.41;10622975;27;20493;-76
2022/11/01 22:13:37;;;;;;;3.65;2.20;;;;;;;5.88;100.00;100872.13;10598294;28;20071;-78
2022/11/01 22:18:39;;;;;;;3.10;2.20;;;;;;;5.84;100.00;100862.78;10587376;28;20039;-76
2022/11/01 22:23:42;;;;;;;4.93;2.50;;;;;;;5.84;100.00;100865.53;10601313;28;20040;-74
2022/11/01 22:28:45;;;;;;;3.90;2.63;;;;;;;5.84;100.00;100861.97;10616669;28;20667;-77
2022/11/01 22:33:54;;;;;;;7.43;2.45;;;;;;;5.81;100.00;100865.19;10596709;28;20031;-75
2022/11/01 22:38:58;;;;;;;5.47;2.20;;;;;;;5.84;100.00;100864.69;10575325;28;20056;-78
2022/11/01 22:44:06;;;;;;;3.22;2.30;;;;;;;5.77;100.00;100859.41;10579078;28;20060;-80
2022/11/01 22:49:13;;;;;;;4.88;1.77;;;;;;;5.69;100.00;100871.50;10573774;28;20509;-74
2022/11/01 22:54:42;;;;;;;3.43;1.97;;;;;;;5.68;100.00;100878.03;10575777;28;20489;-76
2022/11/01 22:59:50;;;;;;;2.63;1.55;;;;;;;5.70;100.00;100869.59;10569696;28;20048;-77
2022/11/01 23:05:07;;;;;;;1.40;1.17;;;;;;;5.59;100.00;100865.06;10575675;28;20047;-78
2022/11/01 23:10:20;;;;;;;2.30;1.08;;;;;;;5.38;100.00;100871.97;10576688;28;20051;-76
2022/11/01 23:15:28;;;;;;;1.17;1.08;;;;;;;5.32;100.00;100872.94;10582145;28;20073;-78
2022/11/01 23:20:30;;;;;;;0.90;0.88;;;;;;;5.37;100.00;100865.69;10595944;28;20511;-90
2022/11/01 23:25:33;;;;;;;1.23;1.13;;;;;;;5.27;100.00;100868.22;10574652;28;20055;-85
2022/11/01 23:30:35;;;;;;;2.80;1.25;;;;;;;5.34;100.00;100870.81;10584624;28;20040;-78
2022/11/01 23:35:37;;;;;;;1.45;0.98;;;;;;;5.38;100.00;100869.25;10583338;28;20043;-89
2022/11/01 23:40:39;;;;;;;1.45;1.02;;;;;;;5.34;99.77;100874.34;10578652;28;20070;-83